Time;durP1;ratioP1;P1;durP2;ratioP2;P2;SDS_P1;SDS_P2;PMS_P1;PMS_P2;Temp;Humidity;BMP_temperature;BMP_pressure;BME280_temperature;BME280_humidity;BME280_pressure;Samples;Min_cycle;Max_cycle;Signal;HPM_P1;HPM_P2
2022/08/23 00:00:18;;;;;;;11.43;7.05;;;19.90;99.90;;;18.37;100.00;99545.59;10222845;28;97387;-94
2022/08/23 00:05:21;;;;;;;11.60;6.90;;;19.90;99.90;;;18.34;100.00;99546.03;10245201;28;97394;-95
2022/08/23 00:10:24;;;;;;;10.60;6.90;;;20.00;99.90;;;18.31;100.00;99539.28;10215632;28;98343;-94
2022/08/23 00:15:28;;;;;;;58.85;8.77;;;19.90;99.90;;;18.31;100.00;99538.47;10226834;28;99789;-95
2022/08/23 00:20:31;;;;;;;10.20;7.00;;;19.90;99.90;;;18.26;100.00;99532.97;10243355;28;97015;-94
2022/08/23 00:25:34;;;;;;;11.82;6.30;;;19.80;99.90;;;18.19;100.00;99525.00;10208673;28;98584;-94
2022/08/23 00:30:37;;;;;;;12.60;7.03;;;19.80;99.90;;;18.15;100.00;99531.91;10256519;28;99083;-93
2022/08/23 00:35:39;;;;;;;12.07;7.43;;;19.70;99.90;;;18.10;100.00;99524.53;10204135;28;98329;-93
2022/08/23 00:40:46;;;;;;;14.32;7.03;;;19.70;99.90;;;18.11;100.00;99538.78;10221428;28;98616;-93
2022/08/23 00:52:23;;;;;;;13.15;9.10;;;19.60;99.90;;;18.03;100.00;99541.81;10243387;28;99037;-92
2022/08/23 00:57:27;;;;;;;90.00;12.15;;;19.60;99.90;;;17.98;100.00;99542.50;10223121;28;99411;-92
2022/08/23 01:02:31;;;;;;;32.88;11.60;;;19.60;99.90;;;18.03;100.00;99553.41;10214381;28;99170;-92
2022/08/23 01:07:53;;;;;;;19.50;10.18;;;19.60;99.90;;;18.05;100.00;99558.53;10232862;28;97649;-92
2022/08/23 01:13:22;;;;;;;13.85;8.90;;;19.70;99.90;;;18.09;100.00;99557.03;10249392;28;96809;-92
2022/08/23 01:18:29;;;;;;;41.25;11.93;;;19.70;99.90;;;18.10;100.00;99566.72;10231750;28;97577;-93
2022/08/23 01:23:43;;;;;;;20.90;9.98;;;19.70;99.90;;;18.10;100.00;99564.84;10241144;28;97715;-92
2022/08/23 01:28:46;;;;;;;18.77;9.88;;;19.80;99.90;;;18.19;100.00;99568.03;10226467;28;96674;-92
2022/08/23 01:33:58;;;;;;;15.73;8.55;;;19.80;99.90;;;18.26;100.00;99568.72;10238455;28;97776;-93
2022/08/23 01:39:04;;;;;;;14.57;9.13;;;19.90;99.90;;;18.31;100.00;99579.63;10240754;28;98156;-93
2022/08/23 01:44:08;;;;;;;15.77;8.40;;;19.90;99.90;;;18.34;100.00;99578.31;10210251;28;98306;-93
2022/08/23 01:49:11;;;;;;;59.10;12.60;;;20.00;99.90;;;18.35;100.00;99579.94;10253516;28;98796;-94
2022/08/23 01:54:15;;;;;;;16.20;8.93;;;20.00;99.90;;;18.34;100.00;99576.44;10219378;28;99325;-95
2022/08/23 01:59:18;;;;;;;14.82;8.63;;;20.00;99.90;;;18.39;100.00;99583.81;10219249;28;96749;-94
2022/08/23 02:04:21;;;;;;;64.90;15.05;;;20.10;99.90;;;18.39;100.00;99587.31;10219273;28;98947;-95
2022/08/23 02:09:24;;;;;;;41.25;12.80;;;20.10;99.90;;;18.40;100.00;99588.97;10207665;28;99059;-94
2022/08/23 02:14:27;;;;;;;19.38;10.05;;;20.00;99.90;;;18.40;100.00;99583.56;10221647;28;99062;-96
2022/08/23 02:19:33;;;;;;;39.33;12.40;;;20.10;99.90;;;18.40;100.00;99588.97;10208630;28;96742;-96
2022/08/23 02:24:45;;;;;;;30.83;13.25;;;20.00;99.90;;;18.42;100.00;99581.50;10214922;28;97401;-95
2022/08/23 02:29:49;;;;;;;23.80;10.38;;;20.10;99.90;;;18.45;100.00;99590.97;10207689;28;97623;-93
2022/08/23 02:34:54;;;;;;;26.33;12.90;;;20.10;99.90;;;18.48;100.00;99597.75;10215203;28;98496;-93
2022/08/23 02:40:08;;;;;;;31.52;12.38;;;20.10;99.90;;;18.48;100.00;99595.06;10213166;28;97580;-93
2022/08/23 02:45:11;;;;;;;62.05;15.55;;;20.10;99.90;;;18.48;100.00;99612.03;10207813;28;98462;-93
2022/08/23 02:50:14;;;;;;;22.52;12.38;;;20.10;99.90;;;18.49;100.00;99607.47;10242766;28;98368;-96
2022/08/23 02:55:19;;;;;;;21.25;11.40;;;20.10;99.90;;;18.52;100.00;99615.88;10211421;28;98505;-94
2022/08/23 03:00:22;;;;;;;26.73;12.57;;;20.10;99.90;;;18.53;100.00;99616.69;10224819;28;97827;-94
2022/08/23 03:05:25;;;;;;;23.15;11.82;;;20.20;99.90;;;18.58;100.00;99625.69;10226424;28;98512;-94
2022/08/23 03:10:28;;;;;;;21.05;11.63;;;20.20;99.90;;;18.58;100.00;99623.00;10225545;28;97546;-93
2022/08/23 03:15:32;;;;;;;46.17;14.40;;;20.20;99.90;;;18.58;100.00;99622.19;10224081;28;98645;-93
2022/08/23 03:20:36;;;;;;;58.60;16.08;;;20.20;99.90;;;18.60;100.00;99630.88;10250083;28;98795;-93
2022/08/23 03:25:39;;;;;;;26.85;13.25;;;20.20;99.90;;;18.59;100.00;99630.03;10253714;28;98457;-94
2022/08/23 03:30:42;;;;;;;63.65;16.95;;;20.30;99.90;;;18.64;100.00;99645.47;10238760;28;97872;-94
2022/08/23 03:35:46;;;;;;;28.23;13.68;;;20.30;99.90;;;18.64;100.00;99635.53;10228286;28;98666;-93
2022/08/23 03:40:51;;;;;;;29.10;14.00;;;20.30;99.90;;;18.66;100.00;99646.06;10211805;28;98455;-93
2022/08/23 03:45:54;;;;;;;30.73;14.15;;;20.30;99.90;;;18.66;100.00;99640.69;10226218;28;97464;-93
2022/08/23 03:50:57;;;;;;;30.27;14.88;;;20.30;99.90;;;18.64;100.00;99640.91;10212318;28;98829;-93
2022/08/23 03:56:00;;;;;;;29.33;14.23;;;20.30;99.90;;;18.62;100.00;99645.72;10211891;28;98194;-93
2022/08/23 04:01:04;;;;;;;29.40;15.52;;;20.30;99.90;;;18.60;100.00;99652.38;10214469;28;98786;-93
2022/08/23 04:06:07;;;;;;;67.55;20.20;;;20.20;99.90;;;18.57;100.00;99666.28;10235196;28;97396;-94
2022/08/23 04:11:12;;;;;;;129.13;22.77;;;20.20;99.90;;;18.56;100.00;99667.34;10223642;28;97467;-95
2022/08/23 04:16:17;;;;;;;45.92;18.05;;;20.20;99.90;;;18.56;100.00;99670.03;10225349;28;98784;-95
2022/08/23 04:21:22;;;;;;;33.35;14.90;;;20.20;99.90;;;18.57;100.00;99674.38;10229615;28;98094;-95
2022/08/23 04:26:25;;;;;;;40.33;17.02;;;20.20;99.90;;;18.54;100.00;99680.22;10213146;28;99213;-95
2022/08/23 04:31:32;;;;;;;89.65;21.92;;;20.20;99.90;;;18.54;100.00;99674.84;10203068;28;99150;-94
2022/08/23 04:36:41;;;;;;;44.78;17.60;;;20.20;99.90;;;18.57;100.00;99675.19;10220497;28;98479;-94
2022/08/23 04:47:17;;;;;;;41.90;18.15;;;20.20;99.90;;;18.60;100.00;99679.31;10225901;28;96863;-95
2022/08/23 04:52:19;;;;;;;94.63;20.48;;;20.20;99.90;;;18.61;100.00;99695.22;10226700;28;98150;-96
2022/08/23 04:57:22;;;;;;;117.80;21.45;;;20.30;99.90;;;18.62;100.00;99694.16;10203954;28;97416;-96
2022/08/23 05:02:26;;;;;;;166.85;24.45;;;20.30;99.90;;;18.64;100.00;99696.59;10182592;28;96733;-95
2022/08/23 05:07:32;;;;;;;40.20;18.80;;;20.30;99.90;;;18.64;100.00;99693.91;10199444;28;97315;-94
2022/08/23 05:12:46;;;;;;;74.82;22.88;;;20.40;99.90;;;18.67;100.00;99704.25;10199535;28;96787;-95
2022/08/23 05:17:48;;;;;;;80.57;22.55;;;20.40;99.90;;;18.67;100.00;99707.75;10226330;28;96900;-95
2022/08/23 05:22:53;;;;;;;83.93;23.88;;;20.40;99.90;;;18.68;100.00;99703.19;10197150;28;98238;-95
2022/08/23 05:27:56;;;;;;;55.22;22.65;;;20.40;99.90;;;18.73;100.00;99705.19;10206268;28;97909;-95
2022/08/23 05:32:59;;;;;;;150.02;28.38;;;20.50;99.90;;;18.78;100.00;99713.41;10187422;28;97493;-94
2022/08/23 05:38:04;;;;;;;58.47;23.88;;;20.50;99.90;;;18.79;100.00;99723.91;10196944;28;97156;-94
2022/08/23 05:43:07;;;;;;;84.75;26.98;;;20.50;99.90;;;18.81;100.00;99715.59;10181646;28;97344;-94
2022/08/23 05:48:11;;;;;;;63.97;23.98;;;20.50;99.90;;;18.87;100.00;99726.25;10195032;28;98575;-94
2022/08/23 05:53:14;;;;;;;90.55;27.95;;;20.50;99.90;;;18.88;100.00;99735.97;10212010;28;97026;-92
2022/08/23 05:58:31;;;;;;;67.82;26.15;;;20.50;99.90;;;18.90;100.00;99755.41;10223792;28;98095;-95
2022/08/23 06:03:35;;;;;;;68.07;27.17;;;20.60;99.90;;;18.92;100.00;99753.31;10248791;28;98493;-96
2022/08/23 06:08:39;;;;;;;60.53;24.75;;;20.60;99.90;;;18.92;100.00;99747.91;10208422;28;97373;-93
2022/08/23 06:13:45;;;;;;;59.88;25.35;;;20.60;99.90;;;18.93;100.00;99757.63;10229458;28;98812;-96
2022/08/23 06:18:49;;;;;;;69.70;28.08;;;20.60;99.90;;;18.90;100.00;99766.19;10230669;28;97694;-94
2022/08/23 06:23:52;;;;;;;61.33;26.38;;;20.60;99.90;;;18.91;100.00;99767.81;10231950;28;98288;-94
2022/08/23 06:28:58;;;;;;;64.65;28.65;;;20.60;99.90;;;18.93;100.00;99776.47;10219200;28;96871;-96
2022/08/23 06:34:01;;;;;;;76.88;28.92;;;20.60;99.90;;;18.89;100.00;99777.16;10257672;28;98340;-92
2022/08/23 06:39:06;;;;;;;70.40;26.40;;;20.60;99.90;;;18.89;100.00;99783.41;10232060;28;98541;-90
2022/08/23 06:44:09;;;;;;;66.90;27.67;;;20.60;99.90;;;18.93;100.00;99791.81;10224547;28;98312;-89
2022/08/23 06:49:12;;;;;;;55.83;25.75;;;20.60;99.90;;;19.01;100.00;99793.34;10212393;28;96946;-89
2022/08/23 06:54:19;;;;;;;58.80;26.20;;;20.70;99.90;;;19.05;100.00;99794.53;10218818;28;98444;-90
2022/08/23 06:59:22;;;;;;;51.20;26.02;;;20.70;99.90;;;19.09;100.00;99793.00;10234992;28;97237;-90
2022/08/23 07:04:31;;;;;;;41.83;23.52;;;20.80;99.90;;;19.16;100.00;99796.41;10218682;28;97623;-90
2022/08/23 07:09:35;;;;;;;49.50;24.00;;;20.80;99.90;;;19.23;100.00;99792.53;10214988;28;96638;-90
2022/08/23 07:14:38;;;;;;;41.30;22.25;;;20.90;99.90;;;19.29;100.00;99806.94;10231820;28;97535;-90
2022/08/23 07:19:42;;;;;;;38.58;20.85;;;21.00;99.90;;;19.33;100.00;99802.72;10230165;28;97577;-90
2022/08/23 07:24:47;;;;;;;37.60;21.98;;;21.00;99.90;;;19.36;100.00;99812.22;10227656;28;96696;-91
2022/08/23 07:29:50;;;;;;;38.50;22.73;;;21.10;99.90;;;19.41;100.00;99810.44;10225229;28;97614;-90
2022/08/23 07:34:53;;;;;;;31.27;19.10;;;21.10;99.90;;;19.45;100.00;99819.72;10227280;28;97650;-88
2022/08/23 07:39:56;;;;;;;30.35;19.75;;;21.10;99.90;;;19.47;100.00;99814.91;10202707;28;97441;-89
2022/08/23 07:45:01;;;;;;;26.42;18.17;;;21.20;99.90;;;19.59;100.00;99822.19;10259367;28;96662;-90
2022/08/23 07:50:05;;;;;;;24.17;15.98;;;21.30;99.90;;;19.63;100.00;99816.09;10233000;28;98519;-90
2022/08/23 07:55:08;;;;;;;27.30;17.17;;;21.30;99.90;;;19.73;100.00;99823.56;10219398;28;96721;-90
2022/08/23 08:00:12;;;;;;;20.95;15.00;;;21.50;99.90;;;19.87;100.00;99824.97;10217401;28;96562;-90
2022/08/23 08:05:15;;;;;;;19.80;16.33;;;21.60;99.90;;;20.02;100.00;99824.44;10267067;28;96591;-89
2022/08/23 08:10:23;;;;;;;21.58;14.27;;;21.70;99.90;;;20.15;100.00;99831.44;10249022;28;96603;-89
2022/08/23 08:15:26;;;;;;;29.35;15.38;;;21.90;99.90;;;20.18;100.00;99830.97;10231710;28;96928;-89
2022/08/23 08:20:33;;;;;;;27.80;16.35;;;22.00;99.90;;;20.13;100.00;99823.59;10213830;28;97746;-89
2022/08/23 08:25:36;;;;;;;16.88;13.65;;;21.90;99.90;;;20.16;100.00;99825.03;10248532;28;97338;-90
2022/08/23 08:30:39;;;;;;;17.00;13.90;;;21.90;99.90;;;20.26;100.00;99833.28;10237735;28;96719;-89
2022/08/23 08:35:48;;;;;;;19.42;13.65;;;22.00;99.90;;;20.42;100.00;99834.41;10254667;28;96679;-89
2022/08/23 08:41:27;;;;;;;19.83;13.02;;;22.10;99.90;;;20.60;100.00;99844.22;10218729;28;98371;-89
2022/08/23 08:46:52;;;;;;;12.57;9.48;;;22.30;99.90;;;20.80;100.00;99849.97;10255358;28;97060;-89
2022/08/23 08:52:21;;;;;;;16.65;8.82;;;22.50;99.90;;;20.93;100.00;99843.44;10241195;28;97405;-88
2022/08/23 08:57:24;;;;;;;9.77;8.13;;;22.60;99.90;;;21.00;100.00;99847.66;10215714;28;96790;-88
2022/08/23 09:02:33;;;;;;;11.23;8.23;;;22.70;99.90;;;21.06;100.00;99849.38;10207401;28;98253;-88
2022/08/23 09:08:16;;;;;;;10.25;7.72;;;22.80;99.90;;;21.25;100.00;99843.72;10215920;28;96698;-88
2022/08/23 09:14:21;;;;;;;9.70;6.35;;;22.90;99.90;;;21.43;100.00;99848.91;10240031;28;98355;-88
2022/08/23 09:19:24;;;;;;;9.65;6.28;;;23.10;99.90;;;21.50;100.00;99838.72;10206665;28;98643;-90
2022/08/23 09:24:29;;;;;;;13.63;6.22;;;23.20;99.90;;;21.53;98.03;99838.25;10223506;28;96850;-88
2022/08/23 09:29:36;;;;;;;8.93;5.28;;;23.20;99.90;;;21.59;95.84;99837.25;10209431;28;98641;-88
2022/08/23 09:34:41;;;;;;;6.05;5.30;;;23.30;99.90;;;21.67;94.85;99840.59;10227275;28;96683;-89
2022/08/23 09:40:16;;;;;;;5.97;5.10;;;23.40;99.90;;;21.75;96.88;99840.16;10231192;28;98211;-88
2022/08/23 09:45:37;;;;;;;7.88;6.85;;;23.40;99.90;;;21.86;96.42;99842.75;10257657;28;97947;-88
2022/08/23 09:50:56;;;;;;;6.20;5.55;;;23.60;99.90;;;22.02;94.99;99843.75;10237450;28;98543;-90
2022/08/23 09:56:16;;;;;;;11.65;7.72;;;23.70;99.90;;;22.13;90.71;99842.84;10235075;28;96709;-88
2022/08/23 10:01:24;;;;;;;12.38;7.55;;;23.90;99.90;;;22.13;85.77;99842.00;10228576;28;98203;-87
2022/08/23 10:06:32;;;;;;;15.07;8.02;;;23.90;99.90;;;22.08;85.03;99850.88;10244631;28;99158;-87
2022/08/23 10:11:43;;;;;;;11.25;6.63;;;23.80;99.90;;;22.14;84.05;99849.91;10243597;28;97390;-87
2022/08/23 10:17:16;;;;;;;10.07;7.32;;;23.90;99.90;;;22.14;85.01;99855.31;10241748;28;99112;-88
2022/08/23 10:22:23;;;;;;;14.20;7.10;;;24.00;99.90;;;22.14;87.00;99849.91;10275625;28;96638;-88
2022/08/23 10:33:15;;;;;;;14.45;6.70;;;24.00;99.90;;;22.04;85.40;99846.22;10245152;28;97371;-88
2022/08/23 10:38:44;;;;;;;14.27;6.72;;;23.90;99.90;;;22.04;85.43;99844.31;10247390;28;96980;-87
2022/08/23 10:43:53;;;;;;;20.90;7.72;;;23.90;99.90;;;22.07;82.85;99851.94;10247401;28;101542;-87
2022/08/23 10:49:01;;;;;;;18.95;6.88;;;23.90;99.90;;;22.23;82.69;99844.84;10242411;28;96781;-87
2022/08/23 10:54:08;;;;;;;11.68;5.85;;;24.10;99.90;;;22.46;81.41;99843.75;10244456;28;97535;-87
2022/08/23 10:59:22;;;;;;;10.07;6.80;;;24.40;99.90;;;22.75;79.29;99846.22;10208996;28;96886;-87
2022/08/23 11:04:35;;;;;;;9.38;7.72;;;24.60;99.90;;;22.98;81.05;99832.38;10229324;28;98616;-88
2022/08/23 11:10:11;;;;;;;18.50;8.00;;;24.80;99.90;;;23.17;76.40;99830.06;10244719;28;98370;-87
2022/08/23 11:15:42;;;;;;;11.93;6.20;;;25.00;99.90;;;23.34;73.40;99827.22;10227186;28;98783;-87
2022/08/23 11:20:49;;;;;;;13.90;5.20;;;25.20;99.90;;;23.47;75.30;99830.28;10236060;28;96753;-88
2022/08/23 11:25:52;;;;;;;6.25;3.85;;;25.40;99.90;;;23.48;77.83;99818.34;10228720;28;96866;-89
2022/08/23 11:30:58;;;;;;;4.05;3.63;;;25.50;99.90;;;23.55;80.00;99817.31;10233078;28;97923;-88
2022/08/23 11:36:07;;;;;;;12.93;4.32;;;25.50;99.90;;;23.65;79.03;99820.94;10231582;28;98213;-89
2022/08/23 11:41:18;;;;;;;4.35;3.67;;;25.60;99.90;;;23.69;79.79;99816.63;10254119;28;97014;-88
2022/08/23 11:46:25;;;;;;;5.50;3.60;;;25.60;99.90;;;23.69;79.86;99808.47;10246529;28;98261;-88
2022/08/23 11:52:04;;;;;;;3.90;3.50;;;25.60;99.90;;;23.68;71.70;99819.56;10252949;28;96574;-90
2022/08/23 11:57:47;;;;;;;4.95;3.95;;;25.60;99.90;;;23.57;76.81;99815.13;10250880;28;98701;-89
2022/08/23 12:03:08;;;;;;;3.72;3.25;;;25.50;99.90;;;23.70;79.27;99817.44;10230659;28;98478;-89
2022/08/23 12:08:11;;;;;;;5.07;4.10;;;25.50;99.90;;;23.90;77.64;99822.13;10247006;28;98780;-89
2022/08/23 12:13:20;;;;;;;4.25;3.83;;;25.90;99.90;;;24.02;76.41;99815.41;10227754;28;98673;-89
2022/08/23 12:18:24;;;;;;;39.22;6.15;;;26.00;99.90;;;24.18;71.92;99818.19;10232623;28;97397;-89
2022/08/23 12:23:29;;;;;;;5.35;3.90;;;26.30;99.90;;;24.18;76.22;99823.59;10235650;28;99162;-89
2022/08/23 12:28:41;;;;;;;3.90;3.50;;;26.30;99.90;;;24.05;74.01;99816.78;10226198;28;98626;-88
2022/08/23 12:34:21;;;;;;;3.60;3.30;;;26.20;99.90;;;23.93;77.94;99811.59;10217745;28;97766;-88
2022/08/23 12:39:38;;;;;;;4.68;3.80;;;26.00;99.90;;;23.95;76.63;99814.84;10224096;28;97286;-89
2022/08/23 12:44:44;;;;;;;4.60;3.90;;;26.00;99.90;;;23.99;73.32;99821.38;10230453;28;96688;-88
2022/08/23 12:50:23;;;;;;;5.07;4.10;;;26.00;99.90;;;23.92;75.66;99823.50;10227086;28;98400;-88
2022/08/23 12:55:40;;;;;;;4.78;4.03;;;25.90;99.90;;;23.75;73.74;99834.56;10239546;28;97410;-89
2022/08/23 13:01:00;;;;;;;5.30;3.80;;;25.60;99.90;;;23.57;76.01;99831.41;10226536;28;99555;-89
2022/08/23 13:06:11;;;;;;;8.93;5.90;;;25.40;99.90;;;23.52;76.94;99823.28;10215361;28;96841;-91
2022/08/23 13:11:19;;;;;;;5.32;4.10;;;25.30;99.90;;;23.64;78.74;99829.34;10228352;28;96791;-90
2022/08/23 13:16:41;;;;;;;4.20;3.80;;;25.40;99.90;;;23.65;79.20;99823.66;10226892;28;97486;-90
2022/08/23 13:21:44;;;;;;;7.70;4.25;;;25.40;99.90;;;23.83;79.51;99822.38;10210401;28;96693;-90
2022/08/23 13:26:48;;;;;;;7.72;4.78;;;25.60;99.90;;;23.97;78.55;99820.81;10219328;28;97171;-89
2022/08/23 13:32:04;;;;;;;28.13;5.80;;;25.70;99.90;;;24.00;77.10;99828.44;10223407;28;97313;-91
2022/08/23 13:37:28;;;;;;;4.32;3.85;;;25.80;99.90;;;23.97;77.77;99828.94;10232328;28;98297;-90
2022/08/23 13:42:47;;;;;;;5.78;4.22;;;25.80;99.90;;;23.90;77.43;99811.28;10207310;28;97774;-89
2022/08/23 13:48:14;;;;;;;6.00;4.30;;;25.70;99.90;;;24.08;77.55;99823.56;10259270;28;98342;-89
2022/08/23 13:53:17;;;;;;;4.18;3.72;;;25.80;99.90;;;24.34;76.18;99819.03;10228508;28;97096;-91
2022/08/23 13:58:33;;;;;;;5.43;3.92;;;26.20;99.90;;;24.34;76.09;99813.59;10212136;28;98644;-89
2022/08/23 14:03:37;;;;;;;4.82;4.30;;;26.20;99.90;;;24.16;76.18;99817.63;10223422;28;97435;-88
2022/08/23 14:08:40;;;;;;;5.97;4.38;;;26.00;99.90;;;23.98;76.02;99813.47;10218233;28;97279;-88
2022/08/23 14:13:46;;;;;;;4.70;3.95;;;25.80;99.90;;;24.11;78.39;99825.72;10205343;28;96796;-88
2022/08/23 14:18:49;;;;;;;4.68;3.63;;;25.90;99.90;;;24.21;78.07;99818.44;10220254;28;97740;-88
2022/08/23 14:24:13;;;;;;;5.35;4.20;;;26.10;99.90;;;24.15;76.60;99830.38;10251983;28;96996;-89
2022/08/23 14:29:16;;;;;;;4.70;4.20;;;26.00;99.90;;;24.08;76.17;99820.84;10224276;28;96738;-89
2022/08/23 14:34:24;;;;;;;4.72;4.32;;;25.90;99.90;;;23.94;76.80;99821.34;10213441;28;98424;-89
2022/08/23 14:39:27;;;;;;;5.53;4.05;;;25.80;99.90;;;23.87;77.69;99814.50;10239642;28;98759;-86
2022/08/23 14:44:30;;;;;;;5.63;4.28;;;25.70;99.90;;;23.92;76.69;99817.25;10259507;28;98443;-88
2022/08/23 14:49:38;;;;;;;4.40;4.00;;;25.80;99.90;;;24.02;77.52;99814.59;10232744;28;97522;-87
2022/08/23 14:54:41;;;;;;;5.05;3.90;;;25.90;99.90;;;24.23;76.18;99810.88;10227691;28;98878;-87
2022/08/23 14:59:44;;;;;;;4.55;3.78;;;26.10;99.90;;;24.38;73.58;99818.25;10243362;28;98407;-87
2022/08/23 15:04:47;;;;;;;6.10;3.50;;;26.20;99.90;;;24.41;75.80;99819.59;10235824;28;97351;-88
2022/08/23 15:09:55;;;;;;;7.53;3.60;;;26.30;99.90;;;24.54;74.92;99806.34;10223877;28;97615;-90
2022/08/23 15:14:58;;;;;;;5.28;3.78;;;26.40;99.90;;;24.55;73.67;99810.69;10219585;28;96799;-89
2022/08/23 15:20:01;;;;;;;8.65;4.40;;;26.30;99.90;;;24.53;73.37;99799.28;10223224;28;98408;-88
2022/08/23 15:25:05;;;;;;;3.65;3.33;;;26.30;99.90;;;24.60;73.05;99803.66;10230015;28;99549;-87
2022/08/23 15:30:10;;;;;;;9.70;3.97;;;26.40;99.90;;;24.57;72.94;99804.97;10247081;28;97458;-88
2022/08/23 15:35:13;;;;;;;7.03;4.00;;;26.30;99.90;;;24.45;72.19;99813.38;10223606;28;96753;-89
2022/08/23 15:40:18;;;;;;;5.32;4.10;;;26.10;99.90;;;24.36;73.32;99820.44;10225621;28;98545;-90
2022/08/23 15:45:22;;;;;;;5.80;3.78;;;26.00;99.90;;;24.33;73.29;99809.25;10232517;28;98755;-91
2022/08/23 15:50:31;;;;;;;4.30;3.45;;;26.00;99.90;;;24.22;73.22;99820.06;10223782;28;98351;-88
2022/08/23 15:55:34;;;;;;;;;;;25.90;99.90;;;24.03;73.37;99822.44;10225459;28;98390;-87
2022/08/23 16:00:38;;;;;;;5.07;3.80;;;25.70;99.90;;;23.85;74.44;99838.38;10245036;28;98532;-89
2022/08/23 16:05:44;;;;;;;5.03;3.85;;;25.50;99.90;;;23.66;74.98;99827.16;10227787;28;96839;-88
2022/08/23 16:10:48;;;;;;;5.30;4.03;;;25.30;99.90;;;23.40;75.04;99831.59;10228140;28;97076;-88
2022/08/23 16:15:51;;;;;;;4.97;3.65;;;25.10;99.90;;;23.19;75.42;99836.84;10230679;28;96587;-89
2022/08/23 16:20:54;;;;;;;5.40;4.10;;;24.80;99.90;;;23.01;76.53;99841.88;10231988;28;96538;-90
2022/08/23 16:25:57;;;;;;;4.80;4.30;;;24.60;99.90;;;22.87;77.21;99842.28;10240995;28;97092;-89
2022/08/23 16:31:03;;;;;;;5.22;4.00;;;24.50;99.90;;;22.76;78.22;99839.72;10211423;28;98155;-89
2022/08/23 16:36:07;;;;;;;4.60;3.72;;;24.40;99.90;;;22.62;78.92;99848.25;10225036;28;97637;-89
2022/08/23 16:41:12;;;;;;;4.80;3.70;;;24.30;99.90;;;22.50;79.16;99844.88;10224785;28;96767;-89
2022/08/23 16:46:16;;;;;;;5.85;4.47;;;24.10;99.90;;;22.31;79.62;99855.25;10210795;28;97711;-90
2022/08/23 16:51:20;;;;;;;6.40;3.90;;;24.00;99.90;;;22.13;80.65;99858.25;10226720;28;98858;-90
2022/08/23 16:56:23;;;;;;;6.82;4.13;;;23.80;99.90;;;21.98;81.31;99861.56;10223787;28;96796;-90
2022/08/23 17:01:27;;;;;;;6.15;4.63;;;23.60;99.90;;;21.84;82.18;99865.72;10222258;28;96558;-91
2022/08/23 17:06:31;;;;;;;5.10;4.60;;;23.40;99.90;;;21.68;82.73;99845.72;10246222;28;96877;-90
2022/08/23 17:11:36;;;;;;;6.18;4.80;;;23.30;99.90;;;21.53;83.41;99862.56;10235037;28;96656;-91
2022/08/23 17:16:41;;;;;;;6.07;4.47;;;23.20;99.90;;;21.39;83.94;99863.97;10221194;28;97188;-89
2022/08/23 17:21:44;;;;;;;4.97;4.47;;;23.00;99.90;;;21.26;84.97;99875.88;10234976;28;99592;-90
2022/08/23 17:26:48;;;;;;;10.07;4.88;;;22.90;99.90;;;21.16;85.78;99880.31;10208184;28;97616;-90
2022/08/23 17:31:51;;;;;;;4.57;4.10;;;22.80;99.90;;;21.05;86.80;99885.56;10213393;28;97230;-91
2022/08/23 17:36:55;;;;;;;4.63;3.95;;;22.70;99.90;;;20.97;87.12;99893.22;10227005;28;99112;-91
2022/08/23 17:41:58;;;;;;;7.30;4.38;;;22.60;99.90;;;20.88;87.79;99900.09;10209998;28;98324;-90
2022/08/23 17:47:03;;;;;;;5.25;4.28;;;22.50;99.90;;;20.77;88.63;99905.31;10216022;28;96733;-89
2022/08/23 17:52:10;;;;;;;4.85;4.35;;;22.40;99.90;;;20.70;88.89;99914.63;10226612;28;97262;-90
2022/08/23 17:57:13;;;;;;;4.40;4.00;;;22.30;99.90;;;20.62;89.98;99918.50;10215080;28;98763;-92
2022/08/23 18:02:19;;;;;;;6.80;4.47;;;22.20;99.90;;;20.56;90.48;99927.56;10240153;28;97295;-90
2022/08/23 18:07:23;;;;;;;4.22;3.78;;;22.10;99.90;;;20.47;91.24;99924.44;10246086;28;98249;-91
2022/08/23 18:12:26;;;;;;;4.13;3.72;;;22.00;99.90;;;20.41;91.58;99936.16;10238188;28;98315;-90
2022/08/23 18:17:31;;;;;;;6.60;4.05;;;22.00;99.90;;;20.36;91.83;99946.84;10219245;28;97375;-90
2022/08/23 18:22:35;;;;;;;3.90;3.47;;;21.90;99.90;;;20.31;92.12;99961.03;10201252;28;96578;-91
2022/08/23 18:33:01;;;;;;;5.18;3.70;;;21.80;99.90;;;20.23;93.14;99979.47;10244107;28;99234;-90
2022/08/23 18:38:05;;;;;;;5.40;3.42;;;21.80;99.90;;;20.20;93.25;99979.94;10245820;28;98178;-90
2022/08/23 18:43:08;;;;;;;4.28;3.72;;;21.80;99.90;;;20.13;93.50;99985.44;10227538;28;98278;-91
2022/08/23 18:48:11;;;;;;;4.45;3.65;;;21.70;99.90;;;20.13;93.87;100003.53;10218570;28;97131;-91
2022/08/23 18:53:16;;;;;;;6.20;3.95;;;21.70;99.90;;;20.10;93.76;99996.72;10221459;28;98403;-90
2022/08/23 18:58:20;;;;;;;4.28;3.40;;;21.70;99.90;;;20.09;93.87;100005.03;10220447;28;98811;-90
2022/08/23 19:03:24;;;;;;;6.22;3.75;;;21.60;99.90;;;20.00;93.87;99988.41;10203851;28;98840;-91
2022/08/23 19:08:27;;;;;;;4.03;3.63;;;21.60;99.90;;;20.00;94.02;99994.59;10219041;28;100009;-89
2022/08/23 19:13:31;;;;;;;3.58;3.17;;;21.50;99.90;;;19.94;94.37;100000.13;10214174;28;97425;-89
2022/08/23 19:18:34;;;;;;;3.97;3.40;;;21.50;99.90;;;19.90;94.62;99996.25;10222391;28;97583;-89
2022/08/23 19:23:37;;;;;;;5.70;3.67;;;21.40;99.90;;;19.82;94.60;100004.69;10218855;28;98992;-88
2022/08/23 19:28:41;;;;;;;5.00;3.65;;;21.40;99.90;;;19.74;94.44;99997.78;10218598;28;98945;-89
2022/08/23 19:33:44;;;;;;;5.57;3.60;;;21.30;99.90;;;19.66;94.83;100000.78;10211509;28;98483;-89
2022/08/23 19:38:49;;;;;;;6.32;3.72;;;21.20;99.90;;;19.61;95.28;100012.28;10232457;28;96750;-89
2022/08/23 19:43:52;;;;;;;7.20;3.90;;;21.20;99.90;;;19.59;95.76;100021.63;10240477;28;97675;-87
2022/08/23 19:48:55;;;;;;;4.03;3.42;;;21.20;99.90;;;19.52;95.77;100025.22;10248442;28;96775;-87
2022/08/23 19:54:05;;;;;;;4.32;3.67;;;21.10;99.90;;;19.48;96.18;100024.03;10247849;28;98034;-89
2022/08/23 19:59:29;;;;;;;4.35;3.95;;;21.10;99.90;;;19.44;96.38;100011.28;10239700;28;97258;-89
2022/08/23 20:04:32;;;;;;;5.25;3.45;;;21.00;99.90;;;19.42;96.97;100014.19;10221189;28;97178;-88
2022/08/23 20:09:35;;;;;;;4.57;4.15;;;21.00;99.90;;;19.42;97.23;100014.19;10216793;28;97111;-88
2022/08/23 20:14:38;;;;;;;5.25;4.00;;;21.00;99.90;;;19.40;97.31;100012.78;10221393;28;97592;-89
2022/08/23 20:19:41;;;;;;;5.13;4.03;;;21.00;99.90;;;19.39;97.42;100025.44;10212825;28;98805;-88
2022/08/23 20:24:47;;;;;;;6.63;4.30;;;21.00;99.90;;;19.39;97.49;100025.44;10222306;28;97519;-89
2022/08/23 20:29:54;;;;;;;4.70;4.10;;;21.00;99.90;;;19.39;97.45;100019.22;10225546;28;98583;-91
2022/08/23 20:34:58;;;;;;;4.05;3.65;;;21.00;99.90;;;19.41;97.43;100012.53;10221003;28;97044;-91
2022/08/23 20:40:01;;;;;;;5.95;3.95;;;21.00;99.90;;;19.39;97.39;100001.19;10220996;28;97843;-93
2022/08/23 20:45:05;;;;;;;5.00;3.80;;;21.00;99.90;;;19.42;97.25;100003.41;10226209;28;99636;-92
2022/08/23 20:50:08;;;;;;;4.13;3.70;;;21.00;99.90;;;19.41;97.44;99988.28;10209927;28;97314;-94
2022/08/23 20:55:12;;;;;;;4.53;4.03;;;21.00;99.90;;;19.41;97.41;99999.06;10205741;28;97494;-93
2022/08/23 21:00:15;;;;;;;4.30;3.88;;;21.00;99.90;;;19.41;97.45;99982.91;10201244;28;97562;-92
2022/08/23 21:05:18;;;;;;;4.30;3.90;;;21.00;99.90;;;19.39;97.60;99986.88;10212948;28;97393;-92
2022/08/23 21:10:21;;;;;;;5.63;4.40;;;21.00;99.90;;;19.39;97.12;99993.09;10218477;28;98424;-92
2022/08/23 21:15:24;;;;;;;4.75;4.07;;;20.90;99.90;;;19.37;97.42;99981.75;10214274;28;97007;-92
2022/08/23 21:20:27;;;;;;;5.53;4.80;;;21.00;99.90;;;19.36;97.10;99988.16;10222600;28;97994;-93